Time;durP1;ratioP1;P1;durP2;ratioP2;P2;SDS_P1;SDS_P2;PMS_P1;PMS_P2;Temp;Humidity;BMP_temperature;BMP_pressure;BME280_temperature;BME280_humidity;BME280_pressure;Samples;Min_cycle;Max_cycle;Signal;HPM_P1;HPM_P2
2022/06/23 00:00:21;;;;;;;7.27;3.40;;;18.50;99.90;;;;;;5066487;28;20496;-88
2022/06/23 00:03:00;;;;;;;9.77;4.13;;;;;;;;;;5072309;28;20816;-88
2022/06/23 00:08:48;;;;;;;5.67;3.30;;;;;;;;;;5067511;28;20775;-88
2022/06/23 00:11:23;;;;;;;5.77;3.67;;;18.40;99.90;;;;;;5072717;28;20433;-90
2022/06/23 00:13:50;;;;;;;11.50;3.97;;;;;;;;;;5075606;28;20924;-89
2022/06/23 00:16:24;;;;;;;16.67;4.50;;;18.40;99.90;;;;;;5072662;28;20813;-90
2022/06/23 00:18:51;;;;;;;5.90;3.63;;;;;;;;;;5072735;28;20610;-91
2022/06/23 00:21:25;;;;;;;7.63;3.60;;;18.30;99.90;;;;;;5072789;28;20854;-89
2022/06/23 00:23:57;;;;;;;9.50;3.67;;;18.30;99.90;;;;;;5074650;28;20449;-89
2022/06/23 00:26:30;;;;;;;6.53;3.00;;;18.20;99.90;;;;;;5075474;28;20937;-89
2022/06/23 00:29:00;;;;;;;6.47;3.80;;;18.20;99.90;;;;;;5075404;28;20862;-89
2022/06/23 00:31:31;;;;;;;8.60;3.20;;;18.20;99.90;;;;;;5072834;28;20454;-90
2022/06/23 00:33:59;;;;;;;13.90;4.23;;;18.20;99.90;;;;;;5076276;28;20480;-91
2022/06/23 00:36:31;;;;;;;6.07;3.60;;;18.20;99.90;;;;;;5071624;28;20454;-89
2022/06/23 00:38:58;;;;;;;5.67;3.43;;;;;;;;;;5074931;28;20466;-89
2022/06/23 00:41:30;;;;;;;4.50;3.23;;;18.00;99.90;;;;;;5066808;28;20463;-90
2022/06/23 00:44:02;;;;;;;9.27;3.77;;;18.10;99.90;;;;;;5075468;28;20453;-89
2022/06/23 00:46:33;;;;;;;11.37;3.90;;;18.00;99.90;;;;;;5075032;28;20445;-90
2022/06/23 00:49:07;;;;;;;6.77;3.93;;;19.70;99.90;;;;;;5075372;28;20822;-91
2022/06/23 00:51:42;;;;;;;10.80;3.80;;;18.00;99.90;;;;;;5075498;28;20856;-90
2022/06/23 00:54:16;;;;;;;11.60;4.20;;;18.00;99.90;;;;;;5069994;28;20443;-90
2022/06/23 00:56:51;;;;;;;7.23;3.57;;;18.00;99.90;;;;;;5075354;28;20472;-91
2022/06/23 00:59:22;;;;;;;10.13;4.40;;;17.90;99.90;;;;;;5075498;28;20480;-90
2022/06/23 01:01:54;;;;;;;10.43;3.77;;;17.90;99.90;;;;;;5072748;28;20446;-92
2022/06/23 01:04:29;;;;;;;6.20;3.57;;;17.90;99.90;;;;;;5072147;28;20437;-91
2022/06/23 01:07:00;;;;;;;9.03;4.73;;;17.80;99.90;;;;;;5075487;28;20450;-90
2022/06/23 01:09:34;;;;;;;7.67;4.20;;;17.80;99.90;;;;;;5072251;28;20450;-90
2022/06/23 01:12:13;;;;;;;8.83;4.20;;;17.80;99.90;;;;;;5075323;28;20446;-91
2022/06/23 01:14:46;;;;;;;7.47;3.87;;;17.70;99.90;;;;;;5073176;28;20454;-91
2022/06/23 01:17:17;;;;;;;5.50;3.60;;;17.60;99.90;;;;;;5075559;28;20935;-90
2022/06/23 01:20:06;;;;;;;9.00;3.90;;;17.60;99.90;;;;;;5069692;28;20489;-91
2022/06/23 01:22:52;;;;;;;7.80;3.40;;;17.50;99.90;;;;;;5074239;28;20449;-92
2022/06/23 01:25:43;;;;;;;5.93;3.50;;;17.30;99.90;;;;;;5074109;28;20459;-91
2022/06/23 01:28:16;;;;;;;10.40;4.20;;;17.30;99.90;;;;;;5072106;28;20473;-91
2022/06/23 01:30:49;;;;;;;5.23;4.30;;;17.30;99.90;;;;;;5072145;28;20438;-91
2022/06/23 01:33:21;;;;;;;8.70;3.93;;;17.20;99.90;;;;;;5068054;28;20473;-91
2022/06/23 01:35:57;;;;;;;4.93;4.00;;;17.20;99.90;;;;;;5073219;28;20476;-89
2022/06/23 01:38:34;;;;;;;6.90;3.40;;;17.10;99.90;;;;;;5073275;28;20449;-86
2022/06/23 01:41:14;;;;;;;10.53;4.50;;;17.10;99.90;;;;;;5038863;28;20480;-90
2022/06/23 01:43:52;;;;;;;9.43;3.67;;;17.00;99.90;;;;;;5074126;28;20450;-88
2022/06/23 01:46:25;;;;;;;5.97;3.47;;;17.00;99.90;;;;;;5071515;28;20469;-89
2022/06/23 01:48:57;;;;;;;9.23;3.90;;;16.90;99.90;;;;;;5073982;28;20457;-88
2022/06/23 01:51:29;;;;;;;10.93;3.93;;;16.90;99.90;;;;;;5070812;28;20797;-88
2022/06/23 01:54:08;;;;;;;8.33;4.50;;;16.90;99.90;;;;;;5073077;28;20442;-89
2022/06/23 01:56:42;;;;;;;6.53;3.93;;;16.80;99.90;;;;;;5068557;28;20960;-89
2022/06/23 01:59:39;;;;;;;9.17;4.30;;;16.80;99.90;;;;;;5070650;28;20522;-89
2022/06/23 02:02:25;;;;;;;12.20;4.17;;;16.70;99.90;;;;;;5069625;28;20948;-90
2022/06/23 02:04:59;;;;;;;11.27;4.10;;;16.70;99.90;;;;;;5074068;28;20445;-89
2022/06/23 02:07:31;;;;;;;4.73;3.33;;;16.60;99.90;;;;;;5073308;28;20437;-91
2022/06/23 02:10:04;;;;;;;5.50;3.40;;;16.60;99.90;;;;;;5074179;28;20475;-91
2022/06/23 02:12:40;;;;;;;10.03;3.80;;;16.50;99.90;;;;;;5074231;28;20442;-92
2022/06/23 02:15:11;;;;;;;9.43;4.17;;;16.50;99.90;;;;;;5073989;28;20802;-89
2022/06/23 02:17:47;;;;;;;10.50;4.37;;;16.40;99.90;;;;;;5073965;28;20526;-89
2022/06/23 02:20:33;;;;;;;10.40;3.87;;;16.40;99.90;;;;;;5073813;28;20485;-90
2022/06/23 02:23:07;;;;;;;7.97;4.30;;;16.40;99.90;;;;;;5072916;28;20897;-90
2022/06/23 02:25:37;;;;;;;3.90;3.33;;;16.30;99.90;;;;;;5073618;28;20457;-92
2022/06/23 02:28:11;;;;;;;8.60;3.90;;;16.30;99.90;;;;;;5073669;28;20434;-91
2022/06/23 02:30:43;;;;;;;11.27;4.33;;;16.30;99.90;;;;;;5073673;28;20449;-89
2022/06/23 02:33:22;;;;;;;7.80;3.67;;;16.30;99.90;;;;;;5073523;28;20481;-90
2022/06/23 02:35:57;;;;;;;10.70;3.60;;;16.20;99.90;;;;;;5073123;28;20437;-89
2022/06/23 02:38:27;;;;;;;14.20;4.37;;;16.20;99.90;;;;;;5067618;28;20462;-91
2022/06/23 02:40:57;;;;;;;6.00;3.30;;;16.20;99.90;;;;;;5073634;28;20489;-89
2022/06/23 02:43:32;;;;;;;8.07;3.83;;;16.10;99.90;;;;;;5070512;28;20465;-90
2022/06/23 02:46:43;;;;;;;4.23;3.40;;;16.10;99.90;;;;;;5073448;28;20476;-91
2022/06/23 02:49:38;;;;;;;6.47;3.90;;;16.00;99.90;;;;;;5026249;28;20456;-89
2022/06/23 02:52:27;;;;;;;9.27;3.87;;;16.00;99.90;;;;;;5073146;28;20441;-90
2022/06/23 02:55:23;;;;;;;11.50;6.00;;;15.90;99.90;;;;;;5070344;28;20881;-90
2022/06/23 02:57:53;;;;;;;6.80;3.90;;;15.90;99.90;;;;;;5074312;28;20438;-90
2022/06/23 03:00:24;;;;;;;12.20;4.17;;;15.90;99.90;;;;;;5068118;28;20481;-89
2022/06/23 03:03:01;;;;;;;6.80;3.80;;;15.90;99.90;;;;;;5073792;28;20454;-90
2022/06/23 03:05:38;;;;;;;7.87;3.47;;;15.90;99.90;;;;;;5073556;28;20475;-90
2022/06/23 03:08:11;;;;;;;9.80;4.30;;;16.20;99.90;;;;;;5072684;28;20441;-91
2022/06/23 03:10:42;;;;;;;5.80;3.17;;;15.70;99.90;;;;;;5073422;28;20851;-90
2022/06/23 03:13:13;;;;;;;11.30;3.97;;;15.90;99.90;;;;;;5068313;28;20453;-89
2022/06/23 03:15:48;;;;;;;7.17;4.00;;;15.80;99.90;;;;;;5070131;28;20442;-89
2022/06/23 03:18:21;;;;;;;8.10;3.90;;;15.80;99.90;;;;;;5038450;28;20450;-89
2022/06/23 03:20:57;;;;;;;10.00;4.70;;;15.80;99.90;;;;;;5072965;28;20492;-89
2022/06/23 03:23:30;;;;;;;8.33;4.10;;;15.90;99.90;;;;;;5072134;28;20935;-89
2022/06/23 03:26:06;;;;;;;5.53;3.67;;;15.90;99.90;;;;;;5072791;28;20450;-91
2022/06/23 03:28:40;;;;;;;8.60;4.70;;;15.90;99.90;;;;;;5070193;28;20463;-91
2022/06/23 03:31:12;;;;;;;6.30;3.60;;;15.90;99.90;;;;;;5072889;28;20454;-90
2022/06/23 03:33:45;;;;;;;8.57;4.30;;;15.90;99.90;;;;;;5073117;28;20478;-90
2022/06/23 03:36:25;;;;;;;8.50;4.00;;;15.90;99.90;;;;;;5073216;28;20450;-89
2022/06/23 03:41:54;;;;;;;9.17;3.87;;;16.00;99.90;;;;;;5073017;28;20584;-90
2022/06/23 03:44:27;;;;;;;10.20;4.20;;;16.00;99.90;;;;;;5072829;28;20453;-90
2022/06/23 03:46:58;;;;;;;7.30;4.60;;;16.20;99.90;;;;;;5073162;28;20553;-89
2022/06/23 03:49:39;;;;;;;5.90;3.60;;;16.00;99.90;;;;;;5072499;28;20460;-90
2022/06/23 03:52:18;;;;;;;6.90;4.40;;;16.00;99.90;;;;;;5076298;28;20445;-90
2022/06/23 03:54:50;;;;;;;6.40;3.33;;;16.00;99.90;;;;;;5068052;28;20853;-91
2022/06/23 03:57:25;;;;;;;8.30;3.93;;;15.80;99.90;;;;;;5073388;28;20449;-90
2022/06/23 04:00:07;;;;;;;4.80;4.30;;;16.10;99.90;;;;;;5076593;28;20476;-91
2022/06/23 04:02:41;;;;;;;11.03;4.77;;;16.10;99.90;;;;;;5076546;28;20457;-91
2022/06/23 04:05:19;;;;;;;4.73;3.50;;;16.20;99.90;;;;;;5072160;28;20460;-90
2022/06/23 04:07:53;;;;;;;8.10;4.37;;;16.20;99.90;;;;;;5075506;28;20441;-89
2022/06/23 04:10:25;;;;;;;6.10;4.10;;;16.20;99.90;;;;;;5076434;28;20452;-89
2022/06/23 04:12:56;;;;;;;9.60;4.33;;;16.20;99.90;;;;;;5073781;28;20434;-90
2022/06/23 04:15:29;;;;;;;8.30;4.87;;;16.30;99.90;;;;;;5076706;28;20445;-90
2022/06/23 04:18:00;;;;;;;7.63;3.90;;;16.30;99.90;;;;;;5072095;28;20456;-89
2022/06/23 04:20:32;;;;;;;6.60;4.17;;;16.30;99.90;;;;;;5073420;28;20848;-89
2022/06/23 04:23:03;;;;;;;8.40;4.30;;;16.30;99.90;;;;;;5075379;28;20972;-89
2022/06/23 04:25:40;;;;;;;6.07;4.80;;;16.30;99.90;;;;;;5076092;28;20976;-91
2022/06/23 04:28:07;;;;;;;9.70;5.07;;;;;;;;;;5076406;28;20444;-91
2022/06/23 04:30:40;;;;;;;9.00;5.30;;;16.30;99.90;;;;;;5076179;28;20430;-90
2022/06/23 04:33:14;;;;;;;8.67;5.00;;;16.30;99.90;;;;;;5075982;28;20473;-91
2022/06/23 04:35:43;;;;;;;11.47;5.13;;;16.30;99.90;;;;;;5075865;28;20979;-91
2022/06/23 04:38:19;;;;;;;7.63;4.97;;;16.30;99.90;;;;;;5074865;28;20486;-89
2022/06/23 04:40:49;;;;;;;8.40;4.10;;;16.30;99.90;;;;;;5075788;28;20489;-90
2022/06/23 04:43:20;;;;;;;7.00;4.47;;;16.30;99.90;;;;;;5071077;28;20948;-89
2022/06/23 04:45:56;;;;;;;8.90;4.50;;;16.40;99.90;;;;;;5075890;28;20480;-88
2022/06/23 04:48:31;;;;;;;9.70;4.57;;;16.40;99.90;;;;;;5075653;28;20445;-90
2022/06/23 04:51:03;;;;;;;8.07;4.90;;;16.50;99.90;;;;;;5063463;28;20473;-90
2022/06/23 04:53:44;;;;;;;10.67;5.07;;;16.60;99.90;;;;;;5074664;28;20441;-90
2022/06/23 04:56:20;;;;;;;9.30;4.87;;;16.70;99.90;;;;;;5075809;28;20437;-90
2022/06/23 04:58:52;;;;;;;7.87;5.70;;;16.90;99.90;;;;;;5075225;28;20444;-90
2022/06/23 05:01:22;;;;;;;14.70;5.90;;;17.10;99.90;;;;;;5072380;28;20892;-91
2022/06/23 05:03:53;;;;;;;12.43;5.00;;;17.20;99.90;;;;;;5075448;28;20437;-90
2022/06/23 05:06:30;;;;;;;9.20;6.30;;;17.30;99.90;;;;;;5075522;28;20459;-91
2022/06/23 05:09:02;;;;;;;8.10;5.93;;;17.40;99.90;;;;;;5071779;28;20449;-91
2022/06/23 05:11:32;;;;;;;7.80;5.27;;;17.50;99.90;;;;;;5075943;28;20929;-91
2022/06/23 05:14:03;;;;;;;10.20;5.87;;;17.60;99.90;;;;;;5076595;28;20438;-90
2022/06/23 05:16:36;;;;;;;7.77;4.60;;;17.80;99.90;;;;;;5076226;28;20499;-91
2022/06/23 05:19:10;;;;;;;12.60;5.27;;;17.90;99.90;;;;;;5076196;28;20457;-91
2022/06/23 05:21:41;;;;;;;6.63;4.33;;;18.10;99.90;;;;;;5071940;28;20495;-92
2022/06/23 05:24:15;;;;;;;12.67;4.77;;;18.20;99.90;;;;;;5074461;28;20442;-91
2022/06/23 05:26:47;;;;;;;7.50;4.40;;;18.40;99.90;;;;;;5075172;28;20444;-89
2022/06/23 05:29:19;;;;;;;11.50;4.17;;;18.60;99.90;;;;;;5074745;28;20442;-91
2022/06/23 05:31:49;;;;;;;8.40;4.37;;;18.70;99.90;;;;;;5075328;28;20928;-92
2022/06/23 05:34:22;;;;;;;8.37;4.07;;;18.90;99.90;;;;;;5075485;28;20517;-90
2022/06/23 05:36:52;;;;;;;10.10;3.57;;;19.20;99.90;;;;;;5067675;28;20453;-90
2022/06/23 05:39:26;;;;;;;11.93;4.70;;;19.70;99.90;;;;;;5074293;28;20798;-89
2022/06/23 05:41:58;;;;;;;8.20;4.53;;;20.40;99.90;;;;;;5075714;28;20492;-85
2022/06/23 05:44:28;;;;;;;8.33;4.43;;;20.40;99.90;;;;;;5074728;28;20477;-90
2022/06/23 05:46:59;;;;;;;7.77;3.70;;;20.60;99.90;;;;;;5074877;28;20453;-93
2022/06/23 05:49:30;;;;;;;7.13;3.80;;;21.40;99.90;;;;;;5075412;28;20441;-92
2022/06/23 05:52:01;;;;;;;5.87;3.77;;;21.90;99.90;;;;;;5075454;28;20438;-95
2022/06/23 05:54:35;;;;;;;4.50;3.63;;;22.10;99.90;;;;;;5065473;28;20472;-92
2022/06/23 05:57:11;;;;;;;5.87;3.50;;;21.90;99.90;;;;;;5075894;28;20429;-95
2022/06/23 05:59:58;;;;;;;10.93;4.37;;;22.50;99.90;;;;;;5075907;28;20445;-93
2022/06/23 06:02:30;;;;;;;8.13;3.70;;;22.90;99.90;;;;;;5074260;28;20515;-93
2022/06/23 06:05:00;;;;;;;7.50;3.53;;;22.70;99.90;;;;;;5075265;28;20445;-91
2022/06/23 06:07:40;;;;;;;9.50;4.63;;;22.90;99.90;;;;;;5074206;28;20453;-91
2022/06/23 06:10:22;;;;;;;8.27;3.20;;;23.20;99.90;;;;;;5082483;28;20437;-93
2022/06/23 06:12:51;;;;;;;9.43;3.50;;;23.80;99.90;;;;;;5082426;28;20491;-92
2022/06/23 06:15:22;;;;;;;6.77;3.53;;;23.70;99.90;;;;;;5074326;28;20450;-92
2022/06/23 06:17:51;;;;;;;6.57;3.30;;;24.00;99.90;;;;;;5080578;28;20450;-92
2022/06/23 06:20:26;;;;;;;6.53;3.13;;;24.40;99.90;;;;;;5080355;28;20430;-94
2022/06/23 06:23:01;;;;;;;7.47;3.60;;;24.70;99.90;;;;;;5042554;28;20459;-93
2022/06/23 06:25:33;;;;;;;6.07;3.60;;;24.80;99.90;;;;;;5079962;28;20449;-93
2022/06/23 06:28:14;;;;;;;7.03;3.80;;;25.20;99.90;;;;;;5078894;28;20453;-96
2022/06/23 06:30:48;;;;;;;7.23;3.33;;;25.30;99.90;;;;;;5077498;28;20458;-94
2022/06/23 06:33:31;;;;;;;5.60;3.60;;;25.20;99.90;;;;;;5074494;28;20489;-93
2022/06/23 06:35:58;;;;;;;10.10;3.70;;;;;;;;;;5080279;28;20456;-94
2022/06/23 06:38:27;;;;;;;12.23;4.37;;;25.00;99.90;;;;;;5081322;28;20457;-90
2022/06/23 06:40:58;;;;;;;9.30;4.23;;;24.60;99.90;;;;;;5078659;28;20482;-93
2022/06/23 06:43:30;;;;;;;5.07;3.30;;;24.30;99.90;;;;;;5079137;28;20445;-95
2022/06/23 06:45:58;;;;;;;9.13;4.30;;;;;;;;;;5073787;28;20484;-91
2022/06/23 06:48:30;;;;;;;10.67;3.37;;;23.70;99.90;;;;;;5077384;28;20480;-89
2022/06/23 06:51:01;;;;;;;5.77;3.63;;;23.20;99.90;;;;;;5075931;28;20450;-89
2022/06/23 06:53:37;;;;;;;5.40;2.53;;;23.40;99.90;;;;;;5076565;28;20461;-95
2022/06/23 06:56:13;;;;;;;8.60;3.10;;;24.50;99.90;;;;;;5076912;28;20951;-95
2022/06/23 06:58:43;;;;;;;4.67;2.90;;;;;;;;;;5076455;28;20449;-94
2022/06/23 07:01:15;;;;;;;5.30;3.47;;;24.90;99.90;;;;;;5074720;28;20491;-94
2022/06/23 07:03:47;;;;;;;4.93;3.40;;;25.00;99.90;;;;;;5074683;28;20907;-92
2022/06/23 07:06:17;;;;;;;4.83;2.73;;;23.90;99.90;;;;;;5069918;28;20472;-91
2022/06/23 07:08:47;;;;;;;5.10;2.80;;;23.20;99.90;;;;;;5075616;28;20827;-93
2022/06/23 07:11:21;;;;;;;6.27;2.80;;;23.90;99.90;;;;;;5072845;28;20816;-95
2022/06/23 07:14:02;;;;;;;7.93;3.80;;;24.90;99.90;;;;;;5078560;28;20521;-95
2022/06/23 07:21:56;;;;;;;16.10;3.10;;;26.10;99.90;;;;;;5039472;22;20488;-89
2022/06/23 07:24:28;;;;;;;8.17;2.80;;;25.50;99.90;;;;;;5017369;28;20455;-89
2022/06/23 07:27:05;;;;;;;4.63;3.00;;;25.30;99.90;;;;;;5018171;28;20440;-93
2022/06/23 07:29:38;;;;;;;5.83;2.90;;;;;;;;;;5220881;23;20566;-93
2022/06/23 07:32:20;;;;;;;7.47;3.03;;;26.30;99.90;;;;;;5037695;28;20487;-93
2022/06/23 07:34:53;;;;;;;5.13;2.97;;;26.40;99.90;;;;;;5051087;28;20524;-90
2022/06/23 07:37:27;;;;;;;7.50;3.20;;;25.70;99.90;;;;;;5056032;28;20454;-91
2022/06/23 07:40:00;;;;;;;5.10;3.47;;;25.60;99.90;;;;;;5057929;28;20942;-91
2022/06/23 07:42:46;;;;;;;4.63;3.10;;;25.50;99.90;;;;;;5057562;28;20458;-88
2022/06/23 07:45:18;;;;;;;6.73;3.17;;;25.90;99.90;;;;;;5057442;28;20466;-87
2022/06/23 07:47:45;;;;;;;2.70;2.30;;;;;;;;;;5056695;28;20534;-86
2022/06/23 07:50:12;;;;;;;4.70;2.83;;;;;;;;;;5056726;28;20443;-89
2022/06/23 07:52:41;;;;;;;8.70;2.53;;;26.20;99.90;;;;;;5056276;28;20501;-88
2022/06/23 07:55:10;;;;;;;8.00;3.60;;;26.60;99.60;;;;;;5059923;28;20458;-88
2022/06/23 07:57:39;;;;;;;6.70;2.93;;;25.90;99.90;;;;;;5061600;28;20442;-88
2022/06/23 08:00:09;;;;;;;3.80;2.83;;;25.60;99.90;;;;;;5062081;28;20445;-90
2022/06/23 08:02:42;;;;;;;4.73;3.00;;;25.70;99.90;;;;;;5058457;28;20453;-89
2022/06/23 08:05:14;;;;;;;9.43;3.83;;;25.70;99.90;;;;;;5058784;28;20446;-90
2022/06/23 08:07:42;;;;;;;5.90;2.37;;;;;;;;;;5055114;28;20949;-85
2022/06/23 08:10:12;;;;;;;6.53;2.50;;;25.60;99.90;;;;;;5056073;28;20450;-86
2022/06/23 08:12:56;;;;;;;4.77;2.80;;;26.00;99.40;;;;;;5052167;28;20856;-89
2022/06/23 08:18:24;;;;;;;4.90;2.40;;;27.00;97.20;;;;;;5056700;28;20430;-86
2022/06/23 08:20:55;;;;;;;7.90;2.90;;;27.20;98.90;;;;;;5056868;28;20460;-89
2022/06/23 08:23:24;;;;;;;5.30;2.40;;;27.40;97.20;;;;;;5057125;28;20446;-89
2022/06/23 08:25:51;;;;;;;13.07;3.40;;;;;;;;;;5060911;28;20469;-90
2022/06/23 08:28:21;;;;;;;9.37;2.80;;;25.90;97.20;;;;;;5058011;28;20454;-89
2022/06/23 08:30:48;;;;;;;7.53;2.30;;;;;;;;;;5056047;28;20451;-91
2022/06/23 08:33:15;;;;;;;7.70;2.50;;;;;;;;;;5055376;28;20493;-87
2022/06/23 08:35:47;;;;;;;7.83;2.80;;;26.20;99.30;;;;;;5056003;28;20458;-91
2022/06/23 08:38:20;;;;;;;4.70;2.70;;;27.10;95.70;;;;;;5054803;28;20517;-89
2022/06/23 08:41:05;;;;;;;5.90;2.97;;;27.60;93.20;;;;;;5052832;28;20508;-88
2022/06/23 08:43:41;;;;;;;6.13;3.03;;;27.70;94.90;;;;;;5055275;28;20457;-87
2022/06/23 08:46:18;;;;;;;5.33;2.20;;;27.00;94.20;;;;;;5057099;28;20457;-89
2022/06/23 08:48:52;;;;;;;3.03;2.67;;;26.40;96.20;;;;;;5053760;28;20450;-89
2022/06/23 08:51:24;;;;;;;5.60;2.60;;;26.80;97.20;;;;;;5056206;28;20493;-90
2022/06/23 08:54:13;;;;;;;4.33;2.67;;;27.50;94.70;;;;;;5055091;28;20474;-88
2022/06/23 08:56:46;;;;;;;7.23;2.80;;;27.10;94.60;;;;;;5053697;28;20439;-93
2022/06/23 08:59:21;;;;;;;5.03;3.07;;;27.60;93.80;;;;;;5056181;28;20443;-88
2022/06/23 09:02:00;;;;;;;3.30;2.40;;;28.00;93.20;;;;;;5055729;28;20450;-91
2022/06/23 09:04:37;;;;;;;6.10;2.93;;;27.80;96.90;;;;;;5052855;28;20783;-91
2022/06/23 09:07:23;;;;;;;5.77;2.70;;;;;;;;;;5058575;28;20450;-94
2022/06/23 09:09:57;;;;;;;4.53;2.80;;;27.30;95.40;;;;;;5057698;28;20481;-92
2022/06/23 09:18:04;;;;;;;5.73;2.60;;;;;;;;;;5158991;23;20485;-94
2022/06/23 09:21:05;;;;;;;5.23;3.10;;;27.70;92.40;;;;;;5101399;28;20469;-88
2022/06/23 09:24:01;;;;;;;5.73;2.33;;;27.40;93.10;;;;;;5093959;28;20813;-88
2022/06/23 09:26:38;;;;;;;10.07;2.57;;;28.00;97.00;;;;;;5090156;28;20429;-90
2022/06/23 09:29:12;;;;;;;7.27;2.37;;;28.40;92.70;;;;;;5094963;28;20506;-90
2022/06/23 09:31:52;;;;;;;5.53;2.63;;;28.10;88.10;;;;;;5094827;28;20493;-89
2022/06/23 09:34:33;;;;;;;7.57;2.40;;;29.30;87.20;;;;;;5094806;28;20444;-89
2022/06/23 09:37:24;;;;;;;4.80;3.80;;;29.00;88.40;;;;;;5090644;28;20479;-90
2022/06/23 09:40:34;;;;;;;5.90;2.53;;;28.90;90.10;;;;;;5092185;28;20449;-90
2022/06/23 09:43:34;;;;;;;4.40;2.00;;;29.10;86.60;;;;;;5071514;28;20948;-89
2022/06/23 09:46:22;;;;;;;4.90;2.70;;;28.00;87.60;;;;;;5114480;28;20827;-88
2022/06/23 09:49:37;;;;;;;4.00;2.53;;;28.60;87.90;;;;;;5112082;28;20448;-88
2022/06/23 09:52:28;;;;;;;5.97;2.43;;;29.50;84.70;;;;;;5115041;28;20471;-89
2022/06/23 09:55:12;;;;;;;4.47;2.83;;;29.10;86.30;;;;;;5114863;28;20447;-90
2022/06/23 09:57:53;;;;;;;3.27;2.17;;;29.40;87.80;;;;;;5114818;28;20517;-90
2022/06/23 10:00:21;;;;;;;4.80;2.07;;;29.50;83.40;;;;;;5115335;28;20479;-91
2022/06/23 10:03:08;;;;;;;7.13;3.10;;;29.20;85.60;;;;;;5115180;28;20451;-90
2022/06/23 10:06:04;;;;;;;5.97;2.77;;;28.80;87.30;;;;;;5114981;28;20458;-89
2022/06/23 10:08:43;;;;;;;5.00;2.80;;;28.70;86.70;;;;;;5113768;28;20513;-88
2022/06/23 10:11:39;;;;;;;10.40;2.97;;;28.50;89.00;;;;;;5114930;28;20450;-89
2022/06/23 10:14:22;;;;;;;4.80;3.23;;;28.70;87.20;;;;;;5116115;28;20432;-87
2022/06/23 10:17:08;;;;;;;4.43;2.57;;;28.90;89.00;;;;;;5114229;28;20483;-90
2022/06/23 10:19:57;;;;;;;4.10;2.63;;;27.90;91.70;;;;;;5115378;28;20452;-89
2022/06/23 10:22:43;;;;;;;6.90;2.53;;;28.30;93.20;;;;;;5109066;28;20436;-91
2022/06/23 10:25:37;;;;;;;6.97;3.17;;;28.80;90.80;;;;;;5110417;28;20455;-89
2022/06/23 10:28:35;;;;;;;5.60;2.40;;;29.00;84.30;;;;;;5114782;28;20451;-89
2022/06/23 10:31:16;;;;;;;7.63;2.77;;;28.90;88.90;;;;;;5114727;28;20935;-92
2022/06/23 10:34:04;;;;;;;4.40;2.57;;;29.20;89.00;;;;;;5114175;28;21016;-91
2022/06/23 10:36:59;;;;;;;4.23;2.10;;;29.60;85.80;;;;;;5114549;28;20448;-91
2022/06/23 10:39:47;;;;;;;7.47;2.20;;;29.80;82.00;;;;;;5111886;28;20938;-88
2022/06/23 10:42:46;;;;;;;5.93;2.30;;;29.10;83.90;;;;;;5110399;28;20444;-88
2022/06/23 10:45:27;;;;;;;10.03;2.67;;;29.30;83.30;;;;;;5113957;28;20448;-91
2022/06/23 10:48:23;;;;;;;4.47;2.40;;;29.10;86.00;;;;;;5114054;28;20443;-89
2022/06/23 10:51:02;;;;;;;3.50;2.20;;;29.40;85.60;;;;;;5115012;28;20448;-90
2022/06/23 10:53:57;;;;;;;6.40;3.10;;;29.80;95.70;;;;;;5113216;28;20491;-89
2022/06/23 10:57:01;;;;;;;7.43;2.40;;;29.70;79.70;;;;;;5114975;28;20432;-91
2022/06/23 10:59:49;;;;;;;4.27;2.30;;;29.70;77.40;;;;;;5111406;28;20440;-91
2022/06/23 11:02:48;;;;;;;3.20;1.80;;;27.40;76.70;;;;;;5116588;28;20447;-94
2022/06/23 11:05:34;;;;;;;6.73;2.00;;;29.00;82.80;;;;;;5095992;28;20447;-90
2022/06/23 11:08:07;;;;;;;60.57;43.83;;;;;;;;;;5112583;28;20459;-90
2022/06/23 11:10:49;;;;;;;3.60;1.93;;;29.50;90.10;;;;;;5114006;28;20535;-92
2022/06/23 11:13:26;;;;;;;7.70;2.30;;;28.90;91.60;;;;;;5113417;28;20490;-89
2022/06/23 11:16:02;;;;;;;34.73;32.17;;;29.10;89.60;;;;;;5113384;28;20971;-90
2022/06/23 11:18:48;;;;;;;5.80;2.33;;;29.00;99.90;;;;;;5113812;28;20446;-89
2022/06/23 11:21:24;;;;;;;192.37;105.03;;;;;;;;;;5113572;28;20435;-91
2022/06/23 11:24:01;;;;;;;198.57;108.77;;;29.80;93.70;;;;;;5112350;28;20755;-90
2022/06/23 11:26:42;;;;;;;11.67;2.60;;;29.90;88.10;;;;;;5113452;28;20444;-86
2022/06/23 11:29:23;;;;;;;73.40;58.23;;;29.90;98.00;;;;;;5113364;28;20448;-89
2022/06/23 11:31:55;;;;;;;5.20;2.00;;;;;;;;;;5113176;28;20444;-89
2022/06/23 11:34:44;;;;;;;3.73;1.90;;;29.80;88.20;;;;;;5108260;28;20436;-90
2022/06/23 11:37:45;;;;;;;3.70;2.10;;;29.10;77.50;;;;;;5112686;28;20447;-88
2022/06/23 11:40:29;;;;;;;9.30;2.17;;;29.40;77.40;;;;;;5096662;28;20851;-88
2022/06/23 11:43:10;;;;;;;5.43;3.40;;;29.50;81.00;;;;;;5098144;28;20983;-87
2022/06/23 11:45:57;;;;;;;4.23;2.00;;;30.10;77.40;;;;;;5101967;28;20464;-90
2022/06/23 11:48:54;;;;;;;7.80;2.20;;;30.20;76.70;;;;;;5102908;28;20458;-88
2022/06/23 11:51:39;;;;;;;4.13;2.53;;;30.30;92.90;;;;;;5105880;28;20818;-86
2022/06/23 11:54:35;;;;;;;7.33;2.47;;;28.90;92.80;;;;;;5108760;28;20979;-94
2022/06/23 11:57:14;;;;;;;4.47;2.33;;;29.20;85.40;;;;;;5105531;28;20471;-95
2022/06/23 11:59:54;;;;;;;4.37;2.80;;;29.90;88.20;;;;;;5117753;28;20444;-93
2022/06/23 12:02:22;;;;;;;7.30;2.60;;;;;;;;;;5093002;28;20460;-89
2022/06/23 12:05:15;;;;;;;7.07;2.80;;;29.20;90.80;;;;;;5095172;28;20449;-91
2022/06/23 12:08:01;;;;;;;4.07;2.57;;;29.50;87.20;;;;;;5112465;28;20436;-90
2022/06/23 12:10:31;;;;;;;6.13;2.50;;;29.40;82.80;;;;;;5114385;28;20456;-89
2022/06/23 12:13:02;;;;;;;9.20;2.67;;;29.30;84.40;;;;;;5111343;28;20486;-91
2022/06/23 12:15:31;;;;;;;6.50;2.43;;;29.80;84.10;;;;;;5118546;28;20813;-93
2022/06/23 12:18:02;;;;;;;8.37;2.30;;;29.90;81.50;;;;;;5117878;28;20458;-91
2022/06/23 12:20:36;;;;;;;5.63;2.67;;;29.30;83.60;;;;;;5119325;28;20502;-91
2022/06/23 12:23:13;;;;;;;6.13;2.37;;;29.80;78.70;;;;;;5118488;28;20451;-92
2022/06/23 12:25:48;;;;;;;3.83;2.40;;;30.10;78.20;;;;;;5118726;28;20447;-89
2022/06/23 12:28:24;;;;;;;3.70;2.10;;;30.00;75.00;;;;;;5112160;28;20503;-94
2022/06/23 12:30:57;;;;;;;6.30;2.30;;;29.40;79.20;;;;;;5105599;28;20439;-93
2022/06/23 12:33:30;;;;;;;4.13;1.60;;;29.70;87.70;;;;;;5105562;28;20495;-92
2022/06/23 12:36:06;;;;;;;15.13;13.60;;;30.10;85.40;;;;;;5101749;28;20440;-91
2022/06/23 12:38:37;;;;;;;82.10;64.90;;;;;;;;;;5102029;28;20451;-91
2022/06/23 12:41:09;;;;;;;15.67;13.57;;;;;;;;;;5117483;28;20444;-94
2022/06/23 12:43:43;;;;;;;4.23;2.40;;;30.20;80.90;;;;;;5097666;28;20452;-89
2022/06/23 12:46:17;;;;;;;5.47;2.30;;;29.70;81.10;;;;;;5097661;28;20468;-89
2022/06/23 12:49:12;;;;;;;5.47;2.47;;;29.10;86.50;;;;;;5105697;28;20449;-91
2022/06/23 12:52:06;;;;;;;3.30;2.03;;;29.90;84.60;;;;;;5109563;28;20445;-92
2022/06/23 12:54:48;;;;;;;3.90;2.90;;;;;;;;;;5104111;28;20479;-90
2022/06/23 12:57:39;;;;;;;5.93;2.70;;;30.20;83.40;;;;;;5095907;28;20461;-88
2022/06/23 13:00:10;;;;;;;7.07;3.13;;;29.70;84.10;;;;;;5104879;28;20441;-93
2022/06/23 13:02:40;;;;;;;8.80;2.17;;;29.80;83.50;;;;;;5096413;28;20883;-91
2022/06/23 13:05:17;;;;;;;6.33;2.57;;;29.40;83.50;;;;;;5098299;28;20460;-91
2022/06/23 13:07:51;;;;;;;5.83;2.20;;;30.10;85.00;;;;;;5097087;28;21000;-91
2022/06/23 13:10:23;;;;;;;4.47;2.53;;;;;;;;;;5093949;28;20504;-92
2022/06/23 13:13:00;;;;;;;7.43;2.80;;;30.80;80.20;;;;;;5100293;28;20562;-92
2022/06/23 13:15:32;;;;;;;9.53;6.63;;;;;;;;;;5102519;28;20518;-92
2022/06/23 13:18:06;;;;;;;2.80;2.33;;;30.60;83.00;;;;;;5106740;28;20452;-94
2022/06/23 13:20:36;;;;;;;4.43;2.67;;;;;;;;;;5094935;28;20440;-95
2022/06/23 13:23:10;;;;;;;3.90;2.20;;;30.00;94.00;;;;;;5098578;28;20460;-94
2022/06/23 13:25:44;;;;;;;6.83;3.03;;;30.40;92.00;;;;;;5099638;28;20993;-94
2022/06/23 13:28:26;;;;;;;7.90;2.53;;;;;;;;;;5102785;28;20766;-95
2022/06/23 13:31:05;;;;;;;4.63;2.17;;;;;;;;;;5105828;28;20449;-92
2022/06/23 13:33:37;;;;;;;6.10;2.20;;;31.00;86.60;;;;;;5101044;28;20499;-93
2022/06/23 13:36:13;;;;;;;8.67;2.03;;;30.60;90.50;;;;;;5113192;28;20458;-91
2022/06/23 13:38:54;;;;;;;4.77;2.37;;;30.50;90.80;;;;;;5083531;28;20931;-93
2022/06/23 13:41:27;;;;;;;8.73;7.90;;;;;;;;;;5111605;28;20437;-90
2022/06/23 13:43:58;;;;;;;6.90;5.73;;;;;;;;;;5107446;28;20620;-90
2022/06/23 13:46:30;;;;;;;7.30;5.50;;;;;;;;;;5109995;28;20436;-91
2022/06/23 13:49:02;;;;;;;6.30;4.07;;;;;;;;;;5121357;28;20451;-92
2022/06/23 13:54:19;;;;;;;4.43;2.57;;;31.20;91.00;;;;;;5047125;23;20491;-90
2022/06/23 13:56:49;;;;;;;4.03;2.20;;;;;;;;;;5049334;28;20450;-91
2022/06/23 13:59:21;;;;;;;3.33;2.03;;;;;;;;;;5040272;28;21022;-94
2022/06/23 14:01:52;;;;;;;4.47;2.47;;;30.10;86.50;;;;;;5050997;28;20446;-89
2022/06/23 14:04:24;;;;;;;4.37;2.07;;;30.90;81.00;;;;;;5053295;28;20455;-90
2022/06/23 14:06:53;;;;;;;4.40;2.03;;;;;;;;;;5055483;28;20458;-91
2022/06/23 14:09:26;;;;;;;5.50;2.10;;;30.80;82.90;;;;;;5054051;28;20455;-91